sensor_id;sensor_type;location;lat;lon;timestamp;P1;durP1;ratioP1;P2;durP2;ratioP2
21107;SDS011;10712;52.944;9.098;2023-04-24T00:00:19;2.20;;;2.00;;
21107;SDS011;10712;52.944;9.098;2023-04-24T00:02:45;2.95;;;2.20;;
21107;SDS011;10712;52.944;9.098;2023-04-24T00:05:12;1.90;;;1.80;;
21107;SDS011;10712;52.944;9.098;2023-04-24T00:07:43;2.22;;;2.03;;
21107;SDS011;10712;52.944;9.098;2023-04-24T00:10:10;4.07;;;2.10;;
21107;SDS011;10712;52.944;9.098;2023-04-24T00:12:37;2.40;;;2.20;;
21107;SDS011;10712;52.944;9.098;2023-04-24T00:15:04;1.83;;;1.73;;
21107;SDS011;10712;52.944;9.098;2023-04-24T00:17:30;2.17;;;2.05;;
21107;SDS011;10712;52.944;9.098;2023-04-24T00:19:56;3.60;;;2.15;;
21107;SDS011;10712;52.944;9.098;2023-04-24T00:22:27;2.10;;;1.90;;
21107;SDS011;10712;52.944;9.098;2023-04-24T00:24:53;1.70;;;1.60;;
21107;SDS011;10712;52.944;9.098;2023-04-24T00:27:20;2.20;;;2.08;;
21107;SDS011;10712;52.944;9.098;2023-04-24T00:29:46;1.85;;;1.73;;
21107;SDS011;10712;52.944;9.098;2023-04-24T00:32:12;1.73;;;1.45;;
21107;SDS011;10712;52.944;9.098;2023-04-24T00:34:39;2.22;;;1.70;;
21107;SDS011;10712;52.944;9.098;2023-04-24T00:37:04;1.40;;;1.27;;
21107;SDS011;10712;52.944;9.098;2023-04-24T00:39:31;2.80;;;1.27;;
21107;SDS011;10712;52.944;9.098;2023-04-24T00:41:57;2.63;;;1.63;;
21107;SDS011;10712;52.944;9.098;2023-04-24T00:44:23;1.27;;;1.17;;
21107;SDS011;10712;52.944;9.098;2023-04-24T00:46:50;2.38;;;1.55;;
21107;SDS011;10712;52.944;9.098;2023-04-24T00:49:19;1.42;;;1.13;;
21107;SDS011;10712;52.944;9.098;2023-04-24T00:51:47;2.00;;;1.17;;
21107;SDS011;10712;52.944;9.098;2023-04-24T00:54:14;2.60;;;1.30;;
21107;SDS011;10712;52.944;9.098;2023-04-24T00:56:41;3.20;;;1.20;;
21107;SDS011;10712;52.944;9.098;2023-04-24T00:59:09;1.58;;;1.33;;
21107;SDS011;10712;52.944;9.098;2023-04-24T01:01:36;1.52;;;1.00;;
21107;SDS011;10712;52.944;9.098;2023-04-24T01:04:02;1.25;;;1.17;;
21107;SDS011;10712;52.944;9.098;2023-04-24T01:06:28;2.65;;;1.30;;
21107;SDS011;10712;52.944;9.098;2023-04-24T01:08:56;1.48;;;1.15;;
21107;SDS011;10712;52.944;9.098;2023-04-24T01:11:25;1.38;;;1.27;;
21107;SDS011;10712;52.944;9.098;2023-04-24T01:13:51;1.63;;;1.42;;
21107;SDS011;10712;52.944;9.098;2023-04-24T01:16:18;1.50;;;1.40;;
21107;SDS011;10712;52.944;9.098;2023-04-24T01:18:46;1.15;;;1.05;;
21107;SDS011;10712;52.944;9.098;2023-04-24T01:21:14;1.88;;;1.27;;
21107;SDS011;10712;52.944;9.098;2023-04-24T01:23:44;1.30;;;1.20;;
21107;SDS011;10712;52.944;9.098;2023-04-24T01:26:11;1.52;;;1.42;;
21107;SDS011;10712;52.944;9.098;2023-04-24T01:28:40;1.50;;;1.40;;
21107;SDS011;10712;52.944;9.098;2023-04-24T01:31:06;1.52;;;1.42;;
21107;SDS011;10712;52.944;9.098;2023-04-24T01:33:32;1.95;;;1.60;;
21107;SDS011;10712;52.944;9.098;2023-04-24T01:35:58;1.77;;;1.67;;
21107;SDS011;10712;52.944;9.098;2023-04-24T01:38:24;1.63;;;1.40;;
21107;SDS011;10712;52.944;9.098;2023-04-24T01:40:51;1.70;;;1.60;;
21107;SDS011;10712;52.944;9.098;2023-04-24T01:43:18;3.67;;;1.50;;
21107;SDS011;10712;52.944;9.098;2023-04-24T01:45:44;2.72;;;1.90;;
21107;SDS011;10712;52.944;9.098;2023-04-24T01:48:11;1.92;;;1.83;;
21107;SDS011;10712;52.944;9.098;2023-04-24T01:50:37;1.50;;;1.40;;
21107;SDS011;10712;52.944;9.098;2023-04-24T01:53:03;3.38;;;1.70;;
21107;SDS011;10712;52.944;9.098;2023-04-24T01:55:30;3.20;;;1.55;;
21107;SDS011;10712;52.944;9.098;2023-04-24T01:57:56;1.50;;;1.40;;
21107;SDS011;10712;52.944;9.098;2023-04-24T02:00:22;2.25;;;1.60;;
21107;SDS011;10712;52.944;9.098;2023-04-24T02:02:50;3.25;;;2.10;;
21107;SDS011;10712;52.944;9.098;2023-04-24T02:05:17;1.85;;;1.67;;
21107;SDS011;10712;52.944;9.098;2023-04-24T02:07:42;6.22;;;2.13;;
21107;SDS011;10712;52.944;9.098;2023-04-24T02:10:08;4.10;;;2.03;;
21107;SDS011;10712;52.944;9.098;2023-04-24T02:12:35;1.80;;;1.70;;
21107;SDS011;10712;52.944;9.098;2023-04-24T02:15:01;1.73;;;1.63;;
21107;SDS011;10712;52.944;9.098;2023-04-24T02:17:27;1.80;;;1.70;;
21107;SDS011;10712;52.944;9.098;2023-04-24T02:19:53;2.28;;;1.90;;
21107;SDS011;10712;52.944;9.098;2023-04-24T02:22:19;3.63;;;1.73;;
21107;SDS011;10712;52.944;9.098;2023-04-24T02:24:45;2.10;;;1.73;;
21107;SDS011;10712;52.944;9.098;2023-04-24T02:27:14;2.15;;;1.95;;
21107;SDS011;10712;52.944;9.098;2023-04-24T02:29:40;1.85;;;1.75;;
21107;SDS011;10712;52.944;9.098;2023-04-24T02:32:06;1.70;;;1.60;;
21107;SDS011;10712;52.944;9.098;2023-04-24T02:34:32;2.03;;;1.88;;
21107;SDS011;10712;52.944;9.098;2023-04-24T02:36:58;1.92;;;1.83;;
21107;SDS011;10712;52.944;9.098;2023-04-24T02:39:24;1.77;;;1.67;;
21107;SDS011;10712;52.944;9.098;2023-04-24T02:41:51;4.07;;;2.17;;
21107;SDS011;10712;52.944;9.098;2023-04-24T02:44:17;1.73;;;1.63;;
21107;SDS011;10712;52.944;9.098;2023-04-24T02:46:43;1.95;;;1.77;;
21107;SDS011;10712;52.944;9.098;2023-04-24T02:49:08;2.00;;;1.90;;
21107;SDS011;10712;52.944;9.098;2023-04-24T02:51:34;2.13;;;2.03;;
21107;SDS011;10712;52.944;9.098;2023-04-24T02:54:03;2.10;;;1.80;;
21107;SDS011;10712;52.944;9.098;2023-04-24T02:56:29;3.88;;;2.03;;
21107;SDS011;10712;52.944;9.098;2023-04-24T02:58:56;1.88;;;1.77;;
21107;SDS011;10712;52.944;9.098;2023-04-24T03:01:22;1.95;;;1.70;;
21107;SDS011;10712;52.944;9.098;2023-04-24T03:03:48;3.45;;;1.88;;
21107;SDS011;10712;52.944;9.098;2023-04-24T03:06:14;3.05;;;2.00;;
21107;SDS011;10712;52.944;9.098;2023-04-24T03:08:40;1.95;;;1.70;;
21107;SDS011;10712;52.944;9.098;2023-04-24T03:11:06;1.40;;;1.30;;
21107;SDS011;10712;52.944;9.098;2023-04-24T03:13:32;1.92;;;1.10;;
21107;SDS011;10712;52.944;9.098;2023-04-24T03:15:57;2.05;;;1.35;;
21107;SDS011;10712;52.944;9.098;2023-04-24T03:18:23;1.13;;;1.00;;
21107;SDS011;10712;52.944;9.098;2023-04-24T03:20:51;1.00;;;1.00;;
21107;SDS011;10712;52.944;9.098;2023-04-24T03:23:17;1.40;;;1.30;;
21107;SDS011;10712;52.944;9.098;2023-04-24T03:25:44;1.50;;;1.08;;
21107;SDS011;10712;52.944;9.098;2023-04-24T03:28:11;1.27;;;0.98;;
21107;SDS011;10712;52.944;9.098;2023-04-24T03:30:41;1.75;;;0.90;;
21107;SDS011;10712;52.944;9.098;2023-04-24T03:33:08;1.15;;;1.10;;
21107;SDS011;10712;52.944;9.098;2023-04-24T03:35:39;1.10;;;1.00;;
21107;SDS011;10712;52.944;9.098;2023-04-24T03:38:08;0.98;;;0.98;;
21107;SDS011;10712;52.944;9.098;2023-04-24T03:40:51;1.42;;;1.13;;
21107;SDS011;10712;52.944;9.098;2023-04-24T03:43:50;1.10;;;1.08;;
21107;SDS011;10712;52.944;9.098;2023-04-24T03:46:16;1.10;;;1.00;;
21107;SDS011;10712;52.944;9.098;2023-04-24T03:48:48;1.35;;;0.90;;
21107;SDS011;10712;52.944;9.098;2023-04-24T03:51:17;1.02;;;1.00;;
21107;SDS011;10712;52.944;9.098;2023-04-24T03:53:45;0.70;;;0.70;;
21107;SDS011;10712;52.944;9.098;2023-04-24T03:56:14;3.80;;;0.80;;
21107;SDS011;10712;52.944;9.098;2023-04-24T03:58:40;0.85;;;0.80;;
21107;SDS011;10712;52.944;9.098;2023-04-24T04:01:07;0.65;;;0.65;;
21107;SDS011;10712;52.944;9.098;2023-04-24T04:03:43;1.00;;;0.90;;
21107;SDS011;10712;52.944;9.098;2023-04-24T04:06:09;2.15;;;1.00;;
21107;SDS011;10712;52.944;9.098;2023-04-24T04:08:36;1.20;;;0.93;;
21107;SDS011;10712;52.944;9.098;2023-04-24T04:11:02;0.80;;;0.80;;
21107;SDS011;10712;52.944;9.098;2023-04-24T04:13:28;0.85;;;0.82;;
21107;SDS011;10712;52.944;9.098;2023-04-24T04:15:54;0.80;;;0.80;;
21107;SDS011;10712;52.944;9.098;2023-04-24T04:18:20;1.55;;;1.05;;
21107;SDS011;10712;52.944;9.098;2023-04-24T04:20:46;1.33;;;1.17;;
21107;SDS011;10712;52.944;9.098;2023-04-24T04:23:14;0.80;;;0.80;;
21107;SDS011;10712;52.944;9.098;2023-04-24T04:25:52;1.08;;;1.00;;
21107;SDS011;10712;52.944;9.098;2023-04-24T04:28:22;4.10;;;2.42;;
21107;SDS011;10712;52.944;9.098;2023-04-24T04:30:50;1.25;;;1.15;;
21107;SDS011;10712;52.944;9.098;2023-04-24T04:33:21;1.13;;;1.10;;
21107;SDS011;10712;52.944;9.098;2023-04-24T04:35:49;1.50;;;1.40;;
21107;SDS011;10712;52.944;9.098;2023-04-24T04:38:18;1.65;;;1.55;;
21107;SDS011;10712;52.944;9.098;2023-04-24T04:40:56;1.40;;;1.30;;
21107;SDS011;10712;52.944;9.098;2023-04-24T04:43:23;1.88;;;1.58;;
21107;SDS011;10712;52.944;9.098;2023-04-24T04:45:51;3.00;;;1.42;;
21107;SDS011;10712;52.944;9.098;2023-04-24T04:48:38;1.73;;;1.38;;
21107;SDS011;10712;52.944;9.098;2023-04-24T04:51:05;2.42;;;1.77;;
21107;SDS011;10712;52.944;9.098;2023-04-24T04:53:31;1.42;;;1.33;;
21107;SDS011;10712;52.944;9.098;2023-04-24T04:55:57;1.20;;;1.10;;
21107;SDS011;10712;52.944;9.098;2023-04-24T04:58:38;2.22;;;1.23;;
21107;SDS011;10712;52.944;9.098;2023-04-24T05:01:06;2.13;;;1.60;;
21107;SDS011;10712;52.944;9.098;2023-04-24T05:03:38;2.95;;;2.00;;
21107;SDS011;10712;52.944;9.098;2023-04-24T05:06:08;3.97;;;2.30;;
21107;SDS011;10712;52.944;9.098;2023-04-24T05:08:36;1.63;;;1.52;;
21107;SDS011;10712;52.944;9.098;2023-04-24T05:11:04;2.50;;;2.03;;
21107;SDS011;10712;52.944;9.098;2023-04-24T05:13:31;2.28;;;2.08;;
21107;SDS011;10712;52.944;9.098;2023-04-24T05:15:58;2.20;;;2.00;;
21107;SDS011;10712;52.944;9.098;2023-04-24T05:18:24;3.05;;;2.28;;
21107;SDS011;10712;52.944;9.098;2023-04-24T05:20:50;2.17;;;1.98;;
21107;SDS011;10712;52.944;9.098;2023-04-24T05:23:16;3.70;;;2.15;;
21107;SDS011;10712;52.944;9.098;2023-04-24T05:25:44;2.53;;;2.03;;
21107;SDS011;10712;52.944;9.098;2023-04-24T05:28:11;6.18;;;2.17;;
21107;SDS011;10712;52.944;9.098;2023-04-24T05:30:38;2.28;;;2.08;;
21107;SDS011;10712;52.944;9.098;2023-04-24T05:33:04;2.53;;;2.20;;
21107;SDS011;10712;52.944;9.098;2023-04-24T05:35:33;2.45;;;2.22;;
21107;SDS011;10712;52.944;9.098;2023-04-24T05:37:59;3.08;;;2.70;;
21107;SDS011;10712;52.944;9.098;2023-04-24T05:40:25;2.70;;;2.45;;
21107;SDS011;10712;52.944;9.098;2023-04-24T05:42:51;5.07;;;2.83;;
21107;SDS011;10712;52.944;9.098;2023-04-24T05:45:17;3.55;;;2.70;;
21107;SDS011;10712;52.944;9.098;2023-04-24T05:47:43;3.55;;;3.00;;
21107;SDS011;10712;52.944;9.098;2023-04-24T05:50:10;4.00;;;3.67;;
21107;SDS011;10712;52.944;9.098;2023-04-24T05:52:36;4.35;;;3.95;;
21107;SDS011;10712;52.944;9.098;2023-04-24T05:55:09;5.78;;;4.30;;
21107;SDS011;10712;52.944;9.098;2023-04-24T05:57:37;5.47;;;4.50;;
21107;SDS011;10712;52.944;9.098;2023-04-24T06:00:03;6.72;;;4.47;;
21107;SDS011;10712;52.944;9.098;2023-04-24T06:02:38;5.53;;;4.97;;
21107;SDS011;10712;52.944;9.098;2023-04-24T06:05:06;5.75;;;5.05;;
21107;SDS011;10712;52.944;9.098;2023-04-24T06:07:33;6.68;;;5.72;;
21107;SDS011;10712;52.944;9.098;2023-04-24T06:10:03;6.30;;;5.65;;
21107;SDS011;10712;52.944;9.098;2023-04-24T06:12:36;7.05;;;6.35;;
21107;SDS011;10712;52.944;9.098;2023-04-24T06:15:07;7.07;;;6.38;;
21107;SDS011;10712;52.944;9.098;2023-04-24T06:17:48;16.85;;;6.90;;
21107;SDS011;10712;52.944;9.098;2023-04-24T06:20:15;6.65;;;5.90;;
21107;SDS011;10712;52.944;9.098;2023-04-24T06:22:41;8.82;;;6.60;;
21107;SDS011;10712;52.944;9.098;2023-04-24T06:25:09;7.93;;;7.22;;
21107;SDS011;10712;52.944;9.098;2023-04-24T06:27:35;8.23;;;7.35;;
21107;SDS011;10712;52.944;9.098;2023-04-24T06:30:01;8.02;;;7.20;;
21107;SDS011;10712;52.944;9.098;2023-04-24T06:32:27;8.07;;;6.93;;
21107;SDS011;10712;52.944;9.098;2023-04-24T06:35:05;7.25;;;6.57;;
21107;SDS011;10712;52.944;9.098;2023-04-24T06:37:33;10.82;;;7.97;;
21107;SDS011;10712;52.944;9.098;2023-04-24T06:39:58;7.45;;;6.75;;
21107;SDS011;10712;52.944;9.098;2023-04-24T06:42:24;8.40;;;7.53;;
21107;SDS011;10712;52.944;9.098;2023-04-24T06:44:50;9.23;;;8.25;;
21107;SDS011;10712;52.944;9.098;2023-04-24T06:47:16;9.77;;;8.77;;
21107;SDS011;10712;52.944;9.098;2023-04-24T06:49:42;9.48;;;8.68;;
21107;SDS011;10712;52.944;9.098;2023-04-24T06:52:07;8.82;;;8.02;;
21107;SDS011;10712;52.944;9.098;2023-04-24T06:54:34;10.52;;;8.77;;
21107;SDS011;10712;52.944;9.098;2023-04-24T06:57:00;10.15;;;8.38;;
21107;SDS011;10712;52.944;9.098;2023-04-24T06:59:27;10.50;;;9.23;;
21107;SDS011;10712;52.944;9.098;2023-04-24T07:01:54;9.68;;;8.68;;
21107;SDS011;10712;52.944;9.098;2023-04-24T07:04:20;12.35;;;9.15;;
21107;SDS011;10712;52.944;9.098;2023-04-24T07:06:46;10.45;;;8.73;;
21107;SDS011;10712;52.944;9.098;2023-04-24T07:09:14;10.52;;;9.52;;
21107;SDS011;10712;52.944;9.098;2023-04-24T07:11:44;10.43;;;8.82;;
21107;SDS011;10712;52.944;9.098;2023-04-24T07:14:10;9.73;;;8.43;;
21107;SDS011;10712;52.944;9.098;2023-04-24T07:16:37;9.70;;;8.73;;
21107;SDS011;10712;52.944;9.098;2023-04-24T07:19:03;10.18;;;8.65;;
21107;SDS011;10712;52.944;9.098;2023-04-24T07:21:29;9.98;;;8.65;;
21107;SDS011;10712;52.944;9.098;2023-04-24T07:23:57;9.70;;;8.30;;
21107;SDS011;10712;52.944;9.098;2023-04-24T07:26:23;11.13;;;8.57;;
21107;SDS011;10712;52.944;9.098;2023-04-24T07:28:51;9.82;;;8.90;;
21107;SDS011;10712;52.944;9.098;2023-04-24T07:31:17;8.82;;;7.97;;
21107;SDS011;10712;52.944;9.098;2023-04-24T07:33:42;8.98;;;8.07;;
21107;SDS011;10712;52.944;9.098;2023-04-24T07:36:08;15.13;;;8.85;;
21107;SDS011;10712;52.944;9.098;2023-04-24T07:38:40;10.20;;;8.95;;
21107;SDS011;10712;52.944;9.098;2023-04-24T07:41:07;10.23;;;9.18;;
21107;SDS011;10712;52.944;9.098;2023-04-24T07:43:33;11.13;;;8.73;;
21107;SDS011;10712;52.944;9.098;2023-04-24T07:45:59;9.93;;;9.02;;
21107;SDS011;10712;52.944;9.098;2023-04-24T07:48:25;9.70;;;8.80;;
21107;SDS011;10712;52.944;9.098;2023-04-24T07:50:52;10.77;;;9.68;;
21107;SDS011;10712;52.944;9.098;2023-04-24T07:53:18;9.70;;;8.73;;
21107;SDS011;10712;52.944;9.098;2023-04-24T07:55:45;9.48;;;8.35;;
21107;SDS011;10712;52.944;9.098;2023-04-24T07:58:11;15.73;;;10.10;;
21107;SDS011;10712;52.944;9.098;2023-04-24T08:00:37;11.20;;;10.13;;
21107;SDS011;10712;52.944;9.098;2023-04-24T08:03:03;12.13;;;10.75;;
21107;SDS011;10712;52.944;9.098;2023-04-24T08:05:29;11.75;;;10.55;;
21107;SDS011;10712;52.944;9.098;2023-04-24T08:07:55;12.20;;;11.00;;
21107;SDS011;10712;52.944;9.098;2023-04-24T08:10:22;13.95;;;11.55;;
21107;SDS011;10712;52.944;9.098;2023-04-24T08:12:48;11.55;;;10.45;;
21107;SDS011;10712;52.944;9.098;2023-04-24T08:15:14;12.45;;;10.35;;
21107;SDS011;10712;52.944;9.098;2023-04-24T08:17:40;16.90;;;11.18;;
21107;SDS011;10712;52.944;9.098;2023-04-24T08:20:06;12.60;;;11.25;;
21107;SDS011;10712;52.944;9.098;2023-04-24T08:25:09;16.13;;;12.40;;
21107;SDS011;10712;52.944;9.098;2023-04-24T08:27:36;14.02;;;11.48;;
21107;SDS011;10712;52.944;9.098;2023-04-24T08:30:03;15.00;;;12.27;;
21107;SDS011;10712;52.944;9.098;2023-04-24T08:32:30;17.05;;;12.88;;
21107;SDS011;10712;52.944;9.098;2023-04-24T08:34:56;18.33;;;13.38;;
21107;SDS011;10712;52.944;9.098;2023-04-24T08:37:23;15.70;;;14.07;;
21107;SDS011;10712;52.944;9.098;2023-04-24T08:39:50;15.75;;;13.55;;
21107;SDS011;10712;52.944;9.098;2023-04-24T08:42:17;17.30;;;13.05;;
21107;SDS011;10712;52.944;9.098;2023-04-24T08:44:44;15.93;;;14.23;;
21107;SDS011;10712;52.944;9.098;2023-04-24T08:47:11;18.08;;;13.40;;
21107;SDS011;10712;52.944;9.098;2023-04-24T08:49:37;17.63;;;14.02;;
21107;SDS011;10712;52.944;9.098;2023-04-24T08:52:06;18.15;;;14.07;;
21107;SDS011;10712;52.944;9.098;2023-04-24T08:54:35;17.58;;;14.65;;
21107;SDS011;10712;52.944;9.098;2023-04-24T08:57:02;15.13;;;13.23;;
21107;SDS011;10712;52.944;9.098;2023-04-24T08:59:29;15.73;;;14.10;;
21107;SDS011;10712;52.944;9.098;2023-04-24T09:01:56;16.60;;;13.68;;
21107;SDS011;10712;52.944;9.098;2023-04-24T09:04:23;17.70;;;14.20;;
21107;SDS011;10712;52.944;9.098;2023-04-24T09:06:51;16.08;;;13.35;;
21107;SDS011;10712;52.944;9.098;2023-04-24T09:09:20;15.30;;;12.90;;
21107;SDS011;10712;52.944;9.098;2023-04-24T09:11:49;16.30;;;13.85;;
21107;SDS011;10712;52.944;9.098;2023-04-24T09:14:16;17.25;;;13.65;;
21107;SDS011;10712;52.944;9.098;2023-04-24T09:16:43;18.73;;;13.57;;
21107;SDS011;10712;52.944;9.098;2023-04-24T09:19:08;16.55;;;13.23;;
21107;SDS011;10712;52.944;9.098;2023-04-24T09:21:34;14.32;;;12.80;;
21107;SDS011;10712;52.944;9.098;2023-04-24T09:24:02;12.98;;;11.73;;
21107;SDS011;10712;52.944;9.098;2023-04-24T09:26:39;15.73;;;12.68;;
21107;SDS011;10712;52.944;9.098;2023-04-24T09:29:05;14.65;;;11.23;;
21107;SDS011;10712;52.944;9.098;2023-04-24T09:31:31;16.35;;;12.45;;
21107;SDS011;10712;52.944;9.098;2023-04-24T09:33:57;14.07;;;12.63;;
21107;SDS011;10712;52.944;9.098;2023-04-24T09:36:41;14.27;;;12.75;;
21107;SDS011;10712;52.944;9.098;2023-04-24T09:39:12;12.60;;;11.27;;
21107;SDS011;10712;52.944;9.098;2023-04-24T09:41:45;18.17;;;11.25;;
21107;SDS011;10712;52.944;9.098;2023-04-24T09:44:22;12.38;;;10.18;;
21107;SDS011;10712;52.944;9.098;2023-04-24T09:46:51;12.32;;;10.65;;
21107;SDS011;10712;52.944;9.098;2023-04-24T09:49:29;10.30;;;9.27;;
21107;SDS011;10712;52.944;9.098;2023-04-24T09:52:10;11.10;;;9.23;;
21107;SDS011;10712;52.944;9.098;2023-04-24T09:54:36;11.20;;;9.27;;
21107;SDS011;10712;52.944;9.098;2023-04-24T09:57:03;10.93;;;9.15;;
21107;SDS011;10712;52.944;9.098;2023-04-24T09:59:30;10.95;;;8.57;;
21107;SDS011;10712;52.944;9.098;2023-04-24T10:01:56;10.13;;;8.57;;
21107;SDS011;10712;52.944;9.098;2023-04-24T10:04:24;9.77;;;7.97;;
21107;SDS011;10712;52.944;9.098;2023-04-24T10:06:53;10.38;;;8.65;;
21107;SDS011;10712;52.944;9.098;2023-04-24T10:09:24;9.35;;;8.15;;
21107;SDS011;10712;52.944;9.098;2023-04-24T10:11:52;9.00;;;8.18;;
21107;SDS011;10712;52.944;9.098;2023-04-24T10:14:20;10.48;;;7.97;;
21107;SDS011;10712;52.944;9.098;2023-04-24T10:16:50;10.40;;;8.25;;
21107;SDS011;10712;52.944;9.098;2023-04-24T10:19:20;8.10;;;7.20;;
21107;SDS011;10712;52.944;9.098;2023-04-24T10:21:46;9.02;;;8.13;;
21107;SDS011;10712;52.944;9.098;2023-04-24T10:24:21;9.82;;;8.68;;
21107;SDS011;10712;52.944;9.098;2023-04-24T10:26:47;8.90;;;7.65;;
21107;SDS011;10712;52.944;9.098;2023-04-24T10:29:14;10.30;;;7.50;;
21107;SDS011;10712;52.944;9.098;2023-04-24T10:31:43;8.95;;;7.95;;
21107;SDS011;10712;52.944;9.098;2023-04-24T10:34:13;8.65;;;7.70;;
21107;SDS011;10712;52.944;9.098;2023-04-24T10:36:43;9.23;;;8.18;;
21107;SDS011;10712;52.944;9.098;2023-04-24T10:39:15;8.15;;;7.45;;
21107;SDS011;10712;52.944;9.098;2023-04-24T10:41:43;9.15;;;7.45;;
21107;SDS011;10712;52.944;9.098;2023-04-24T10:44:12;8.15;;;7.35;;
21107;SDS011;10712;52.944;9.098;2023-04-24T10:46:43;8.05;;;7.22;;
21107;SDS011;10712;52.944;9.098;2023-04-24T10:49:13;8.88;;;7.97;;
21107;SDS011;10712;52.944;9.098;2023-04-24T10:51:49;8.30;;;6.43;;
21107;SDS011;10712;52.944;9.098;2023-04-24T10:54:34;7.97;;;7.18;;
21107;SDS011;10712;52.944;9.098;2023-04-24T10:59:43;7.65;;;6.03;;
21107;SDS011;10712;52.944;9.098;2023-04-24T11:02:09;7.47;;;6.68;;
21107;SDS011;10712;52.944;9.098;2023-04-24T11:04:35;7.57;;;6.18;;
21107;SDS011;10712;52.944;9.098;2023-04-24T11:07:04;6.88;;;6.20;;
21107;SDS011;10712;52.944;9.098;2023-04-24T11:09:31;8.10;;;6.30;;
21107;SDS011;10712;52.944;9.098;2023-04-24T11:17:38;6.25;;;5.60;;
21107;SDS011;10712;52.944;9.098;2023-04-24T11:20:10;6.25;;;5.65;;
21107;SDS011;10712;52.944;9.098;2023-04-24T11:22:43;6.15;;;5.43;;
21107;SDS011;10712;52.944;9.098;2023-04-24T11:25:09;6.45;;;5.85;;
21107;SDS011;10712;52.944;9.098;2023-04-24T11:27:40;7.90;;;5.95;;
21107;SDS011;10712;52.944;9.098;2023-04-24T11:30:16;6.43;;;5.65;;
21107;SDS011;10712;52.944;9.098;2023-04-24T11:32:47;7.18;;;6.45;;
21107;SDS011;10712;52.944;9.098;2023-04-24T11:35:16;6.63;;;6.00;;
21107;SDS011;10712;52.944;9.098;2023-04-24T11:37:50;5.50;;;4.97;;
21107;SDS011;10712;52.944;9.098;2023-04-24T11:40:19;6.45;;;5.85;;
21107;SDS011;10712;52.944;9.098;2023-04-24T11:42:51;6.38;;;5.30;;
21107;SDS011;10712;52.944;9.098;2023-04-24T11:45:23;6.78;;;5.72;;
21107;SDS011;10712;52.944;9.098;2023-04-24T11:47:55;6.55;;;5.53;;
21107;SDS011;10712;52.944;9.098;2023-04-24T11:50:21;6.38;;;5.78;;
21107;SDS011;10712;52.944;9.098;2023-04-24T11:52:54;7.35;;;5.88;;
21107;SDS011;10712;52.944;9.098;2023-04-24T11:57:47;6.05;;;5.50;;
21107;SDS011;10712;52.944;9.098;2023-04-24T12:00:19;6.13;;;5.53;;
21107;SDS011;10712;52.944;9.098;2023-04-24T12:03:12;6.00;;;4.93;;
21107;SDS011;10712;52.944;9.098;2023-04-24T12:05:38;4.45;;;4.05;;
21107;SDS011;10712;52.944;9.098;2023-04-24T12:08:04;4.97;;;4.40;;
21107;SDS011;10712;52.944;9.098;2023-04-24T12:10:31;5.22;;;4.82;;
21107;SDS011;10712;52.944;9.098;2023-04-24T12:12:58;6.70;;;6.10;;
21107;SDS011;10712;52.944;9.098;2023-04-24T12:15:25;5.55;;;5.05;;
21107;SDS011;10712;52.944;9.098;2023-04-24T12:17:53;4.32;;;3.90;;
21107;SDS011;10712;52.944;9.098;2023-04-24T12:20:30;4.05;;;3.60;;
21107;SDS011;10712;52.944;9.098;2023-04-24T12:22:58;4.57;;;4.18;;
21107;SDS011;10712;52.944;9.098;2023-04-24T12:25:29;4.07;;;3.78;;
21107;SDS011;10712;52.944;9.098;2023-04-24T12:30:29;3.15;;;2.95;;
21107;SDS011;10712;52.944;9.098;2023-04-24T12:32:57;3.03;;;2.83;;
21107;SDS011;10712;52.944;9.098;2023-04-24T12:35:26;3.38;;;2.63;;
21107;SDS011;10712;52.944;9.098;2023-04-24T12:37:54;2.83;;;2.50;;
21107;SDS011;10712;52.944;9.098;2023-04-24T12:40:21;2.60;;;2.40;;
21107;SDS011;10712;52.944;9.098;2023-04-24T12:42:50;4.00;;;2.47;;
21107;SDS011;10712;52.944;9.098;2023-04-24T12:45:18;2.40;;;2.20;;
21107;SDS011;10712;52.944;9.098;2023-04-24T12:47:44;4.20;;;2.40;;
21107;SDS011;10712;52.944;9.098;2023-04-24T12:50:14;2.70;;;2.47;;
21107;SDS011;10712;52.944;9.098;2023-04-24T12:52:41;2.53;;;2.40;;
21107;SDS011;10712;52.944;9.098;2023-04-24T12:55:08;2.47;;;2.33;;
21107;SDS011;10712;52.944;9.098;2023-04-24T12:57:35;3.88;;;2.40;;
21107;SDS011;10712;52.944;9.098;2023-04-24T13:00:03;2.00;;;1.80;;
21107;SDS011;10712;52.944;9.098;2023-04-24T13:02:32;2.20;;;2.03;;
21107;SDS011;10712;52.944;9.098;2023-04-24T13:04:59;2.25;;;2.10;;
21107;SDS011;10712;52.944;9.098;2023-04-24T13:07:26;2.65;;;2.45;;
21107;SDS011;10712;52.944;9.098;2023-04-24T13:09:52;2.85;;;2.40;;
21107;SDS011;10712;52.944;9.098;2023-04-24T13:12:20;2.70;;;2.50;;
21107;SDS011;10712;52.944;9.098;2023-04-24T13:14:48;2.95;;;2.75;;
21107;SDS011;10712;52.944;9.098;2023-04-24T13:17:14;2.83;;;2.58;;
21107;SDS011;10712;52.944;9.098;2023-04-24T13:19:42;3.38;;;2.90;;
21107;SDS011;10712;52.944;9.098;2023-04-24T13:22:10;3.55;;;2.70;;
21107;SDS011;10712;52.944;9.098;2023-04-24T13:24:37;3.30;;;3.00;;
21107;SDS011;10712;52.944;9.098;2023-04-24T13:27:05;5.60;;;4.20;;
21107;SDS011;10712;52.944;9.098;2023-04-24T13:29:32;5.05;;;3.65;;
21107;SDS011;10712;52.944;9.098;2023-04-24T13:31:58;4.30;;;3.90;;
21107;SDS011;10712;52.944;9.098;2023-04-24T13:34:25;6.55;;;4.20;;
21107;SDS011;10712;52.944;9.098;2023-04-24T13:36:52;4.43;;;4.03;;
21107;SDS011;10712;52.944;9.098;2023-04-24T13:39:21;5.22;;;4.72;;
21107;SDS011;10712;52.944;9.098;2023-04-24T13:41:48;8.63;;;4.18;;
21107;SDS011;10712;52.944;9.098;2023-04-24T13:44:17;5.10;;;4.70;;
21107;SDS011;10712;52.944;9.098;2023-04-24T13:46:46;6.68;;;6.00;;
21107;SDS011;10712;52.944;9.098;2023-04-24T13:49:15;6.80;;;5.22;;
21107;SDS011;10712;52.944;9.098;2023-04-24T13:51:42;6.70;;;5.50;;
21107;SDS011;10712;52.944;9.098;2023-04-24T13:54:08;5.32;;;4.00;;
21107;SDS011;10712;52.944;9.098;2023-04-24T13:56:34;6.82;;;4.72;;
21107;SDS011;10712;52.944;9.098;2023-04-24T13:59:00;4.35;;;3.95;;
21107;SDS011;10712;52.944;9.098;2023-04-24T14:01:27;5.15;;;4.65;;
21107;SDS011;10712;52.944;9.098;2023-04-24T14:03:53;7.70;;;5.00;;
21107;SDS011;10712;52.944;9.098;2023-04-24T14:06:20;5.90;;;3.97;;
21107;SDS011;10712;52.944;9.098;2023-04-24T14:08:48;8.15;;;4.70;;
21107;SDS011;10712;52.944;9.098;2023-04-24T14:11:15;6.45;;;4.60;;
21107;SDS011;10712;52.944;9.098;2023-04-24T14:13:42;6.88;;;5.30;;
21107;SDS011;10712;52.944;9.098;2023-04-24T14:16:09;5.95;;;5.35;;
21107;SDS011;10712;52.944;9.098;2023-04-24T14:18:36;6.65;;;5.07;;
21107;SDS011;10712;52.944;9.098;2023-04-24T14:21:02;6.45;;;4.85;;
21107;SDS011;10712;52.944;9.098;2023-04-24T14:23:29;10.32;;;5.20;;
21107;SDS011;10712;52.944;9.098;2023-04-24T14:25:56;8.40;;;4.78;;
21107;SDS011;10712;52.944;9.098;2023-04-24T14:28:23;10.30;;;4.90;;
21107;SDS011;10712;52.944;9.098;2023-04-24T14:30:49;10.40;;;4.68;;
21107;SDS011;10712;52.944;9.098;2023-04-24T14:33:15;7.80;;;4.55;;
21107;SDS011;10712;52.944;9.098;2023-04-24T14:35:42;8.38;;;4.57;;
21107;SDS011;10712;52.944;9.098;2023-04-24T14:38:08;4.80;;;3.90;;
21107;SDS011;10712;52.944;9.098;2023-04-24T14:40:35;7.15;;;4.15;;
21107;SDS011;10712;52.944;9.098;2023-04-24T14:43:01;8.90;;;4.50;;
21107;SDS011;10712;52.944;9.098;2023-04-24T14:45:27;8.98;;;3.85;;
21107;SDS011;10712;52.944;9.098;2023-04-24T14:47:53;8.52;;;4.45;;
21107;SDS011;10712;52.944;9.098;2023-04-24T14:50:20;6.63;;;3.40;;
21107;SDS011;10712;52.944;9.098;2023-04-24T14:52:46;9.10;;;4.50;;
21107;SDS011;10712;52.944;9.098;2023-04-24T14:55:12;8.85;;;4.13;;
21107;SDS011;10712;52.944;9.098;2023-04-24T14:57:38;9.38;;;4.18;;
21107;SDS011;10712;52.944;9.098;2023-04-24T15:00:05;3.78;;;3.47;;
21107;SDS011;10712;52.944;9.098;2023-04-24T15:02:34;5.75;;;3.88;;